createdAt,value
2022-08-17T00:00:49.459Z,59.38
2022-08-17T00:03:30.102Z,56.10
2022-08-17T00:06:12.399Z,56.19
2022-08-17T00:08:48.708Z,57.33
2022-08-17T00:11:26.059Z,58.82
2022-08-17T00:14:01.411Z,59.93
2022-08-17T00:16:56.273Z,60.45
2022-08-17T00:19:29.128Z,61.65
2022-08-17T00:22:34.726Z,65.23
2022-08-17T00:24:54.891Z,63.75
2022-08-17T00:27:29.066Z,59.97
2022-08-17T00:30:31.386Z,56.24
2022-08-17T00:33:28.441Z,56.65
2022-08-17T00:35:58.207Z,58.07
2022-08-17T00:38:28.068Z,59.27
2022-08-17T00:41:00.007Z,59.42
2022-08-17T00:43:45.761Z,60.73
2022-08-17T00:46:40.472Z,61.64
2022-08-17T00:49:11.013Z,65.98
2022-08-17T00:51:46.760Z,63.42
2022-08-17T00:54:16.660Z,60.12
2022-08-17T00:57:07.418Z,57.05
2022-08-17T00:59:56.015Z,57.01
2022-08-17T01:02:41.713Z,58.21
2022-08-17T01:05:20.700Z,59.74
2022-08-17T01:07:51.122Z,60.80
2022-08-17T01:10:59.497Z,61.43
2022-08-17T01:13:13.110Z,65.69
2022-08-17T01:15:48.488Z,62.73
2022-08-17T01:18:16.771Z,59.63
2022-08-17T01:20:55.122Z,56.73
2022-08-17T01:23:25.861Z,56.80
2022-08-17T01:25:58.021Z,58.10
2022-08-17T01:28:52.438Z,58.86
2022-08-17T01:31:19.719Z,60.62
2022-08-17T01:33:48.068Z,61.74
2022-08-17T01:36:16.108Z,65.10
2022-08-17T01:38:44.130Z,63.79
2022-08-17T01:41:16.566Z,60.60
2022-08-17T01:43:51.787Z,57.61
2022-08-17T01:46:24.632Z,57.40
2022-08-17T01:48:52.926Z,58.81
2022-08-17T01:51:21.770Z,59.56
2022-08-17T01:53:53.008Z,61.27
2022-08-17T01:56:26.495Z,64.43
2022-08-17T01:58:54.864Z,64.00
2022-08-17T02:01:28.158Z,61.02
2022-08-17T02:04:00.560Z,57.25
2022-08-17T02:06:45.349Z,56.86
2022-08-17T02:09:23.291Z,58.24
2022-08-17T02:11:57.545Z,59.72
2022-08-17T02:14:26.000Z,60.88
2022-08-17T02:16:56.130Z,64.36
2022-08-17T02:19:24.338Z,63.20
2022-08-17T02:21:55.088Z,60.38
2022-08-17T02:25:00.815Z,57.22
2022-08-17T02:27:17.852Z,56.82
2022-08-17T02:32:40.480Z,58.65
2022-08-17T02:35:09.917Z,60.06
2022-08-17T02:37:38.276Z,60.99
2022-08-17T02:44:14.925Z,62.63
2022-08-17T02:47:02.180Z,57.53
2022-08-17T02:49:46.271Z,57.46
2022-08-17T02:52:43.335Z,59.13
2022-08-17T02:55:49.974Z,60.47
2022-08-17T02:58:35.854Z,64.90
2022-08-17T03:01:17.855Z,63.04
2022-08-17T03:04:01.706Z,59.33
2022-08-17T03:06:33.057Z,56.30
2022-08-17T03:09:09.102Z,56.97
2022-08-17T03:11:41.992Z,58.64
2022-08-17T03:14:12.319Z,59.86
2022-08-17T03:16:42.769Z,60.92
2022-08-17T03:19:13.832Z,64.59
2022-08-17T03:21:54.806Z,63.59
2022-08-17T03:24:28.964Z,60.32
2022-08-17T03:26:59.489Z,56.79
2022-08-17T03:29:29.040Z,56.92
2022-08-17T03:32:02.019Z,58.30
2022-08-17T03:34:30.772Z,59.81
2022-08-17T03:36:59.357Z,61.17
2022-08-17T03:39:28.322Z,64.65
2022-08-17T03:42:07.869Z,62.93
2022-08-17T03:44:57.900Z,59.38
2022-08-17T03:47:47.787Z,56.37
2022-08-17T03:50:37.027Z,57.36
2022-08-17T03:53:34.495Z,58.92
2022-08-17T03:56:22.974Z,60.41
2022-08-17T03:58:51.503Z,64.63
2022-08-17T04:01:19.915Z,62.63
2022-08-17T04:03:52.076Z,59.77
2022-08-17T04:06:22.988Z,56.97
2022-08-17T04:08:51.689Z,56.73
2022-08-17T04:11:41.610Z,57.53
2022-08-17T04:14:51.660Z,59.33
2022-08-17T04:17:34.823Z,61.10
2022-08-17T04:20:07.987Z,65.06
2022-08-17T04:22:36.595Z,63.65
2022-08-17T04:25:18.978Z,60.69
2022-08-17T04:27:52.050Z,57.35
2022-08-17T04:30:21.508Z,57.41
2022-08-17T04:33:04.215Z,58.64
2022-08-17T04:35:41.892Z,59.51
2022-08-17T04:38:13.990Z,61.37
2022-08-17T04:41:06.358Z,65.57
2022-08-17T04:43:37.541Z,63.68
2022-08-17T04:46:08.939Z,60.66
2022-08-17T04:49:03.587Z,57.44
2022-08-17T04:51:56.833Z,57.00
2022-08-17T04:55:21.180Z,58.15
2022-08-17T04:58:03.436Z,59.69
2022-08-17T05:00:35.026Z,60.75
2022-08-17T05:03:40.431Z,65.04
2022-08-17T05:06:29.018Z,62.63
2022-08-17T05:09:06.784Z,58.11
2022-08-17T05:12:38.059Z,57.59
2022-08-17T05:15:39.024Z,58.93
2022-08-17T05:18:13.834Z,60.16
2022-08-17T05:20:45.912Z,61.51
2022-08-17T05:23:17.981Z,65.22
2022-08-17T05:25:50.516Z,63.16
2022-08-17T05:28:24.093Z,59.91
2022-08-17T05:31:25.482Z,56.54
2022-08-17T05:33:54.206Z,56.49
2022-08-17T05:36:41.933Z,57.23
2022-08-17T05:39:16.320Z,58.69
2022-08-17T05:41:48.845Z,59.52
2022-08-17T05:44:19.353Z,59.61
2022-08-17T05:46:55.240Z,59.67
2022-08-17T05:49:28.033Z,60.24
2022-08-17T05:52:22.050Z,60.45
2022-08-17T05:55:01.175Z,60.50
2022-08-17T05:58:51.643Z,60.96
2022-08-17T06:01:27.136Z,60.82
2022-08-17T06:03:59.518Z,61.27
2022-08-17T06:11:58.818Z,60.73
2022-08-17T06:14:34.398Z,60.93
2022-08-17T06:17:10.493Z,61.59
2022-08-17T06:20:01.871Z,61.76
2022-08-17T06:22:36.586Z,60.91
2022-08-17T06:25:20.506Z,61.01
2022-08-17T06:27:58.588Z,61.12
2022-08-17T06:30:58.455Z,61.16
2022-08-17T06:33:37.290Z,61.13
2022-08-17T06:36:40.265Z,60.95
2022-08-17T06:39:19.847Z,60.63
2022-08-17T06:42:05.439Z,60.51
2022-08-17T06:44:49.789Z,60.07
2022-08-17T06:47:52.984Z,59.54
2022-08-17T06:50:41.596Z,58.12
2022-08-17T06:53:22.123Z,58.07
2022-08-17T06:56:09.079Z,58.23
2022-08-17T06:58:40.298Z,58.08
2022-08-17T07:01:18.756Z,57.95
2022-08-17T07:03:54.671Z,57.77
2022-08-17T07:06:29.921Z,57.95
2022-08-17T07:09:13.725Z,57.74
2022-08-17T07:11:56.983Z,57.57
2022-08-17T07:15:05.983Z,57.00
2022-08-17T07:17:47.448Z,55.15
2022-08-17T07:20:31.530Z,55.37
2022-08-17T07:23:30.417Z,55.16
2022-08-17T07:26:09.050Z,55.29
2022-08-17T07:28:37.428Z,54.89
2022-08-17T07:31:12.931Z,54.63
2022-08-17T07:34:00.299Z,54.90
2022-08-17T07:36:33.815Z,53.86
2022-08-17T07:39:03.682Z,53.51
2022-08-17T07:41:53.243Z,53.22
2022-08-17T07:44:26.981Z,51.93
2022-08-17T07:47:14.353Z,50.69
2022-08-17T07:49:50.566Z,49.92
2022-08-17T07:52:51.828Z,50.05
2022-08-17T07:55:31.836Z,50.21
2022-08-17T07:58:00.298Z,50.08
2022-08-17T08:00:32.606Z,49.69
2022-08-17T08:03:06.494Z,49.33
2022-08-17T08:05:49.695Z,49.45
2022-08-17T08:08:43.557Z,48.34
2022-08-17T08:11:15.481Z,46.31
2022-08-17T08:13:45.767Z,45.56
2022-08-17T08:16:27.157Z,44.76
2022-08-17T08:19:03.315Z,45.37
2022-08-17T08:22:16.650Z,45.39
2022-08-17T08:25:07.340Z,44.74
2022-08-17T08:27:54.853Z,44.48
2022-08-17T08:30:28.228Z,44.58
2022-08-17T08:33:20.904Z,44.24
2022-08-17T08:36:57.122Z,44.57
2022-08-17T08:39:19.758Z,43.74
2022-08-17T08:41:59.909Z,43.22
2022-08-17T08:45:00.140Z,43.27
2022-08-17T08:47:58.193Z,42.97
2022-08-17T08:51:15.795Z,42.55
2022-08-17T08:53:49.436Z,42.81
2022-08-17T08:57:11.573Z,42.41
2022-08-17T09:00:02.007Z,42.79
2022-08-17T09:02:35.146Z,42.03
2022-08-17T09:05:14.380Z,41.45
2022-08-17T09:07:58.871Z,41.19
2022-08-17T09:10:50.350Z,41.31
2022-08-17T09:13:38.283Z,40.79
2022-08-17T09:16:16.606Z,40.65
2022-08-17T09:19:02.550Z,40.75
2022-08-17T09:21:38.321Z,40.80
2022-08-17T09:24:25.682Z,41.22
2022-08-17T09:27:13.323Z,40.09
2022-08-17T09:29:49.241Z,40.01
2022-08-17T09:32:31.474Z,39.83
2022-08-17T09:35:09.449Z,39.49
2022-08-17T09:38:01.793Z,39.50
2022-08-17T09:41:03.048Z,38.06
2022-08-17T09:43:41.555Z,38.44
2022-08-17T09:46:19.348Z,38.02
2022-08-17T09:49:07.634Z,38.22
2022-08-17T09:51:49.510Z,37.63
2022-08-17T09:54:41.156Z,37.47
2022-08-17T09:57:31.626Z,36.66
2022-08-17T10:00:23.882Z,36.87
2022-08-17T10:03:16.551Z,37.05
2022-08-17T10:05:57.087Z,35.76
2022-08-17T10:08:52.604Z,35.19
2022-08-17T10:12:10.101Z,35.07
2022-08-17T10:14:55.125Z,33.83
2022-08-17T10:17:31.316Z,33.81
2022-08-17T10:20:14.889Z,33.82
2022-08-17T10:23:04.673Z,32.99
2022-08-17T10:25:56.047Z,32.88
2022-08-17T10:28:31.981Z,32.54
2022-08-17T10:31:33.689Z,33.01
2022-08-17T10:34:07.359Z,32.65
2022-08-17T10:37:09.517Z,32.26
2022-08-17T10:40:16.730Z,31.73
2022-08-17T10:43:07.358Z,31.93
2022-08-17T10:46:09.229Z,31.25
2022-08-17T10:49:04.414Z,30.98
2022-08-17T10:51:55.559Z,30.80
2022-08-17T10:54:49.723Z,30.07
2022-08-17T10:57:28.169Z,30.99
2022-08-17T11:00:35.647Z,31.42
2022-08-17T11:03:22.403Z,32.02
2022-08-17T11:06:29.599Z,32.50
2022-08-17T11:09:53.135Z,32.91
2022-08-17T11:12:33.674Z,33.29
2022-08-17T11:15:10.436Z,32.50
2022-08-17T11:17:51.333Z,32.46
2022-08-17T11:20:23.306Z,32.35
2022-08-17T11:23:26.174Z,32.74
2022-08-17T11:26:01.678Z,32.25
2022-08-17T11:28:36.064Z,32.12
2022-08-17T11:31:39.270Z,32.33
2022-08-17T11:34:18.891Z,32.68
2022-08-17T11:37:08.648Z,32.04
2022-08-17T11:39:49.092Z,31.14
2022-08-17T11:42:30.793Z,31.62
2022-08-17T11:45:08.033Z,30.35
2022-08-17T11:48:27.008Z,29.17
2022-08-17T11:51:47.204Z,29.85
2022-08-17T11:54:34.579Z,29.06
2022-08-17T11:57:41.858Z,29.02
2022-08-17T12:01:00.148Z,28.67
2022-08-17T12:03:33.502Z,28.62
2022-08-17T12:06:31.106Z,28.17
2022-08-17T12:09:24.772Z,28.57
2022-08-17T12:12:12.781Z,28.47
2022-08-17T12:15:09.582Z,29.11
2022-08-17T12:17:50.260Z,28.14
2022-08-17T12:20:28.434Z,28.44
2022-08-17T12:23:32.298Z,27.97
2022-08-17T12:26:01.598Z,27.34
2022-08-17T12:28:38.217Z,26.41
2022-08-17T12:31:26.402Z,26.21
2022-08-17T12:33:56.797Z,26.95
2022-08-17T12:36:28.267Z,26.51
2022-08-17T12:39:14.139Z,26.29
2022-08-17T12:41:47.145Z,26.58
2022-08-17T12:44:24.820Z,26.74
2022-08-17T12:50:28.684Z,26.97
2022-08-17T12:53:01.929Z,25.54
2022-08-17T12:55:37.632Z,25.84
2022-08-17T12:58:15.370Z,25.57
2022-08-17T13:00:50.047Z,25.86
2022-08-17T13:03:23.044Z,26.31
2022-08-17T13:05:58.085Z,26.42
2022-08-17T13:09:40.760Z,25.87
2022-08-17T13:15:36.160Z,25.46
2022-08-17T13:18:52.511Z,25.33
2022-08-17T13:21:31.138Z,25.11
2022-08-17T13:24:08.024Z,24.94
2022-08-17T13:26:48.701Z,25.07
2022-08-17T13:29:23.358Z,24.86
2022-08-17T13:32:45.623Z,25.11
2022-08-17T13:35:39.559Z,25.24
2022-08-17T13:38:38.570Z,24.63
2022-08-17T13:41:42.697Z,24.68
2022-08-17T13:44:35.135Z,24.86
2022-08-17T13:48:14.019Z,24.13
2022-08-17T13:51:58.570Z,24.18
2022-08-17T13:54:35.206Z,24.45
2022-08-17T13:57:18.169Z,24.22
2022-08-17T13:59:53.807Z,23.60
2022-08-17T14:02:27.630Z,23.94
2022-08-17T14:04:58.685Z,23.37
2022-08-17T14:07:32.130Z,22.73
2022-08-17T14:10:16.709Z,22.25
2022-08-17T14:12:46.682Z,22.86
2022-08-17T14:15:20.804Z,22.54
2022-08-17T14:17:57.097Z,21.90
2022-08-17T14:20:26.699Z,22.48
2022-08-17T14:22:56.130Z,21.90
2022-08-17T14:25:32.477Z,21.11
2022-08-17T14:28:10.198Z,20.66
2022-08-17T14:30:44.075Z,20.14
2022-08-17T14:33:14.598Z,20.41
2022-08-17T14:35:49.329Z,20.12
2022-08-17T14:38:19.570Z,19.90
2022-08-17T14:40:56.281Z,19.25
2022-08-17T14:43:44.739Z,18.87
2022-08-17T14:46:15.933Z,18.92
2022-08-17T14:48:55.156Z,18.98
2022-08-17T14:51:30.971Z,18.84
2022-08-17T14:54:00.665Z,17.90
2022-08-17T14:56:31.694Z,18.29
2022-08-17T14:59:10.047Z,18.25
2022-08-17T15:01:44.143Z,18.35
2022-08-17T15:04:21.463Z,18.46
2022-08-17T15:06:51.625Z,17.18
2022-08-17T15:09:26.033Z,17.39
2022-08-17T15:11:57.338Z,17.57
2022-08-17T15:14:26.651Z,17.18
2022-08-17T15:16:55.104Z,16.98
2022-08-17T15:19:26.142Z,16.19
2022-08-17T15:21:54.460Z,16.42
2022-08-17T15:24:22.620Z,16.31
2022-08-17T15:26:52.690Z,16.27
2022-08-17T15:29:23.270Z,15.94
2022-08-17T15:31:52.267Z,16.23
2022-08-17T15:34:22.559Z,16.30
2022-08-17T15:36:50.751Z,16.10
2022-08-17T15:39:19.562Z,16.02
2022-08-17T15:41:58.437Z,15.85
2022-08-17T15:44:32.537Z,15.24
2022-08-17T15:47:03.622Z,14.94
2022-08-17T15:49:31.802Z,14.75
2022-08-17T15:52:00.040Z,14.84
2022-08-17T15:54:36.085Z,14.84
2022-08-17T15:57:05.711Z,14.98
2022-08-17T15:59:35.139Z,14.70
2022-08-17T16:03:01.187Z,14.50
2022-08-17T16:05:10.691Z,14.53
2022-08-17T16:07:39.317Z,14.44
2022-08-17T16:10:08.595Z,14.66
2022-08-17T16:12:47.907Z,15.37
2022-08-17T16:15:16.749Z,15.97
2022-08-17T16:17:45.125Z,16.64
2022-08-17T16:20:20.610Z,17.81
2022-08-17T16:22:50.548Z,17.67
2022-08-17T16:25:38.378Z,17.75
2022-08-17T16:28:22.406Z,17.57
2022-08-17T16:30:58.894Z,17.90
2022-08-17T16:33:28.410Z,18.60
2022-08-17T16:35:58.310Z,19.07
2022-08-17T16:38:27.223Z,20.56
2022-08-17T16:40:56.582Z,21.24
2022-08-17T16:43:25.719Z,21.69
2022-08-17T16:45:55.013Z,22.57
2022-08-17T16:48:29.036Z,22.66
2022-08-17T16:51:03.404Z,22.27
2022-08-17T16:53:33.607Z,21.54
2022-08-17T16:56:02.021Z,21.75
2022-08-17T16:58:31.131Z,21.68
2022-08-17T17:00:59.920Z,22.98
2022-08-17T17:03:30.043Z,23.98
2022-08-17T17:06:10.180Z,24.60
2022-08-17T17:09:00.882Z,25.54
2022-08-17T17:11:41.792Z,26.23
2022-08-17T17:14:15.548Z,26.34
2022-08-17T17:16:52.561Z,26.64
2022-08-17T17:19:40.603Z,27.73
2022-08-17T17:22:16.409Z,28.82
2022-08-17T17:24:53.959Z,29.85
2022-08-17T17:27:29.572Z,30.49
2022-08-17T17:30:09.952Z,31.53
2022-08-17T17:33:07.770Z,32.40
2022-08-17T17:35:50.838Z,33.31
2022-08-17T17:38:23.633Z,34.06
2022-08-17T17:41:04.514Z,34.89
2022-08-17T17:43:39.836Z,35.78
2022-08-17T17:46:30.616Z,36.07
2022-08-17T17:49:06.087Z,36.75
2022-08-17T17:51:54.808Z,37.62
2022-08-17T17:54:43.049Z,38.34
2022-08-17T17:57:22.416Z,39.11
2022-08-17T18:00:00.722Z,39.20
2022-08-17T18:03:07.357Z,39.85
2022-08-17T18:05:58.369Z,39.87
2022-08-17T18:09:02.191Z,41.49
2022-08-17T18:11:53.001Z,42.59
2022-08-17T18:14:55.519Z,43.74
2022-08-17T18:17:24.539Z,44.68
2022-08-17T18:21:46.231Z,45.30
2022-08-17T18:23:17.984Z,45.62
2022-08-17T18:25:50.443Z,47.67
2022-08-17T18:28:23.671Z,48.01
2022-08-17T18:31:11.260Z,48.67
2022-08-17T18:33:42.471Z,49.31
2022-08-17T18:36:11.808Z,49.90
2022-08-17T18:38:42.227Z,50.14
2022-08-17T18:41:19.289Z,50.43
2022-08-17T18:44:19.608Z,50.57
2022-08-17T18:47:05.620Z,50.71
2022-08-17T18:49:36.578Z,51.13
2022-08-17T18:52:32.953Z,51.55
2022-08-17T18:55:56.272Z,51.64
2022-08-17T18:58:53.910Z,52.14
2022-08-17T19:02:16.096Z,52.62
2022-08-17T19:05:18.621Z,53.30
2022-08-17T19:07:50.499Z,53.77
2022-08-17T19:10:46.714Z,54.21
2022-08-17T19:13:24.069Z,54.40
2022-08-17T19:16:15.692Z,54.94
2022-08-17T19:18:50.244Z,55.33
2022-08-17T19:21:35.374Z,55.67
2022-08-17T19:24:20.201Z,56.09
2022-08-17T19:27:19.894Z,56.07
2022-08-17T19:30:11.890Z,56.57
2022-08-17T19:32:41.194Z,57.03
2022-08-17T19:35:17.994Z,57.72
2022-08-17T19:38:13.173Z,57.91
2022-08-17T19:41:41.102Z,58.07
2022-08-17T19:44:53.270Z,58.34
2022-08-17T19:47:54.839Z,58.50
2022-08-17T19:50:50.204Z,59.20
2022-08-17T19:54:04.780Z,59.32
2022-08-17T19:57:10.583Z,59.33
2022-08-17T20:00:00.077Z,59.33
2022-08-17T20:02:32.734Z,59.33
2022-08-17T20:05:06.850Z,59.88
2022-08-17T20:08:09.752Z,60.20
2022-08-17T20:11:02.634Z,60.27
2022-08-17T20:13:56.817Z,60.13
2022-08-17T20:16:26.295Z,60.37
2022-08-17T20:19:25.278Z,60.85
2022-08-17T20:22:50.391Z,60.81
2022-08-17T20:26:04.527Z,60.62
2022-08-17T20:28:35.988Z,60.96
2022-08-17T20:31:09.981Z,61.45
2022-08-17T20:33:38.378Z,61.24
2022-08-17T20:36:24.895Z,61.73
2022-08-17T20:38:59.901Z,61.92
2022-08-17T20:41:33.419Z,64.97
2022-08-17T20:44:05.275Z,64.13
2022-08-17T20:46:36.669Z,59.04
2022-08-17T20:49:28.077Z,57.08
2022-08-17T20:52:13.727Z,57.45
2022-08-17T20:54:53.579Z,57.97
2022-08-17T20:57:31.777Z,58.40
2022-08-17T21:00:14.203Z,58.70
2022-08-17T21:02:49.878Z,59.20
2022-08-17T21:05:36.099Z,59.79
2022-08-17T21:08:53.815Z,59.92
2022-08-17T21:12:02.910Z,60.10
2022-08-17T21:14:34.522Z,60.49
2022-08-17T21:17:31.176Z,60.68
2022-08-17T21:20:13.067Z,60.98
2022-08-17T21:23:05.312Z,61.35
2022-08-17T21:25:49.310Z,61.62
2022-08-17T21:29:00.929Z,61.39
2022-08-17T21:31:35.269Z,61.43
2022-08-17T21:34:15.956Z,61.88
2022-08-17T21:36:48.563Z,61.83
2022-08-17T21:39:24.025Z,62.12
2022-08-17T21:42:00.534Z,65.65
2022-08-17T21:44:38.046Z,63.62
2022-08-17T21:47:26.558Z,58.19
2022-08-17T21:50:18.808Z,56.26
2022-08-17T21:52:56.295Z,55.80
2022-08-17T21:55:31.221Z,56.38
2022-08-17T21:58:24.568Z,57.04
2022-08-17T22:01:21.366Z,57.42
2022-08-17T22:03:55.829Z,57.58
2022-08-17T22:06:34.577Z,57.86
2022-08-17T22:09:25.913Z,58.26
2022-08-17T22:12:17.118Z,58.43
2022-08-17T22:14:51.507Z,58.10
2022-08-17T22:17:30.160Z,58.28
2022-08-17T22:20:19.135Z,58.38
2022-08-17T22:23:10.292Z,58.45
2022-08-17T22:25:42.436Z,58.49
2022-08-17T22:28:12.851Z,57.94
2022-08-17T22:31:08.344Z,58.13
2022-08-17T22:33:47.957Z,58.04
2022-08-17T22:36:41.996Z,58.15
2022-08-17T22:39:11.290Z,58.00
2022-08-17T22:42:04.473Z,58.30
2022-08-17T22:44:49.129Z,58.22
2022-08-17T22:47:22.976Z,58.25
2022-08-17T22:50:00.746Z,58.17
2022-08-17T22:52:34.411Z,58.01
2022-08-17T22:55:34.287Z,58.59
2022-08-17T22:58:32.081Z,58.46
2022-08-17T23:01:34.369Z,58.49
2022-08-17T23:04:38.863Z,58.62
2022-08-17T23:07:22.567Z,58.46
2022-08-17T23:10:06.064Z,58.51
2022-08-17T23:12:39.966Z,58.45
2022-08-17T23:15:20.730Z,58.47
2022-08-17T23:17:49.368Z,58.52
2022-08-17T23:20:19.273Z,58.38
2022-08-17T23:22:51.382Z,58.29
2022-08-17T23:25:41.031Z,58.26
2022-08-17T23:28:11.361Z,58.51
2022-08-17T23:30:43.849Z,58.37
2022-08-17T23:33:34.374Z,58.58
2022-08-17T23:36:10.006Z,58.78
2022-08-17T23:38:38.803Z,58.68
2022-08-17T23:41:12.180Z,59.05
2022-08-17T23:43:49.131Z,58.97
2022-08-17T23:46:22.723Z,59.39
2022-08-17T23:48:55.104Z,59.80
2022-08-17T23:51:39.901Z,59.79
2022-08-17T23:54:21.942Z,59.88
2022-08-17T23:56:56.622Z,60.27
2022-08-17T23:59:28.760Z,60.70
